createdAt,value
2023-03-24T00:00:11.478Z,1.50
2023-03-24T00:02:42.053Z,1.48
2023-03-24T00:05:13.935Z,1.25
2023-03-24T00:07:41.470Z,1.40
2023-03-24T00:10:11.092Z,1.38
2023-03-24T00:12:38.953Z,1.50
2023-03-24T00:15:08.393Z,1.38
2023-03-24T00:17:36.844Z,1.30
2023-03-24T00:20:14.493Z,1.63
2023-03-24T00:22:42.786Z,1.20
2023-03-24T00:25:11.385Z,1.35
2023-03-24T00:27:38.945Z,1.30
2023-03-24T00:30:08.719Z,1.40
2023-03-24T00:32:38.993Z,1.50
2023-03-24T00:35:08.970Z,1.38
2023-03-24T00:37:37.554Z,1.20
2023-03-24T00:40:08.893Z,1.40
2023-03-24T00:42:37.431Z,1.30
2023-03-24T00:45:06.461Z,1.48
2023-03-24T00:47:36.943Z,1.40
2023-03-24T00:50:11.310Z,1.25
2023-03-24T00:52:44.181Z,1.17
2023-03-24T00:55:16.030Z,1.10
2023-03-24T00:57:50.773Z,1.20
2023-03-24T01:00:21.456Z,1.20
2023-03-24T01:02:53.914Z,1.13
2023-03-24T01:05:28.939Z,1.10
2023-03-24T01:07:58.295Z,1.30
2023-03-24T01:10:26.710Z,1.30
2023-03-24T01:12:58.141Z,1.10
2023-03-24T01:15:29.609Z,1.10
2023-03-24T01:17:57.735Z,1.20
2023-03-24T01:20:25.232Z,1.05
2023-03-24T01:22:52.142Z,1.15
2023-03-24T01:25:22.259Z,1.35
2023-03-24T01:27:50.589Z,1.30
2023-03-24T01:30:23.126Z,1.55
2023-03-24T01:32:51.874Z,1.40
2023-03-24T01:35:20.713Z,1.60
2023-03-24T01:37:47.900Z,1.70
2023-03-24T01:40:26.794Z,1.30
2023-03-24T01:42:53.779Z,1.60
2023-03-24T01:45:39.762Z,1.60
2023-03-24T01:48:24.211Z,1.40
2023-03-24T01:51:02.814Z,1.42
2023-03-24T01:53:32.351Z,1.20
2023-03-24T01:56:00.744Z,1.30
2023-03-24T01:58:33.100Z,1.25
2023-03-24T02:01:19.259Z,1.30
2023-03-24T02:04:14.460Z,1.25
2023-03-24T02:06:43.999Z,1.40
2023-03-24T02:09:13.600Z,1.42
2023-03-24T02:11:41.788Z,1.10
2023-03-24T02:14:09.232Z,1.15
2023-03-24T02:16:54.962Z,1.40
2023-03-24T02:19:27.756Z,1.20
2023-03-24T02:22:20.771Z,1.30
2023-03-24T02:25:21.673Z,1.38
2023-03-24T02:28:07.129Z,1.20
2023-03-24T02:31:01.870Z,1.00
2023-03-24T02:34:07.337Z,1.20
2023-03-24T02:36:59.486Z,1.20
2023-03-24T02:39:39.375Z,1.10
2023-03-24T02:42:34.285Z,1.27
2023-03-24T02:45:20.293Z,1.10
2023-03-24T02:48:05.450Z,1.30
2023-03-24T02:50:41.607Z,1.08
2023-03-24T02:53:19.423Z,1.20
2023-03-24T02:56:21.992Z,1.50
2023-03-24T02:58:56.091Z,1.10
2023-03-24T03:01:32.747Z,1.05
2023-03-24T03:04:46.223Z,1.20
2023-03-24T03:07:16.923Z,1.05
2023-03-24T03:09:51.824Z,1.30
2023-03-24T03:12:20.681Z,1.45
2023-03-24T03:15:02.944Z,1.25
2023-03-24T03:17:42.166Z,1.30
2023-03-24T03:20:20.745Z,1.23
2023-03-24T03:23:11.253Z,1.40
2023-03-24T03:25:46.396Z,1.40
2023-03-24T03:28:18.027Z,1.70
2023-03-24T03:30:50.346Z,1.67
2023-03-24T03:33:25.271Z,1.40
2023-03-24T03:36:14.246Z,1.60
2023-03-24T03:39:22.188Z,1.52
2023-03-24T03:41:49.067Z,1.50
2023-03-24T03:44:16.161Z,1.80
2023-03-24T03:46:43.417Z,1.60
2023-03-24T03:49:16.115Z,1.80
2023-03-24T03:51:43.008Z,1.70
2023-03-24T03:54:12.489Z,1.60
2023-03-24T03:56:40.909Z,1.90
2023-03-24T03:59:36.537Z,1.80
2023-03-24T04:05:20.984Z,1.60
2023-03-24T04:08:16.602Z,1.27
2023-03-24T04:11:40.204Z,1.60
2023-03-24T04:14:37.530Z,1.60
2023-03-24T04:18:01.146Z,1.50
2023-03-24T04:21:17.484Z,1.60
2023-03-24T04:24:03.405Z,1.50
2023-03-24T04:26:48.074Z,1.80
2023-03-24T04:32:24.555Z,1.60
2023-03-24T04:35:01.642Z,1.60
2023-03-24T04:38:07.251Z,1.80
2023-03-24T04:40:41.918Z,1.65
2023-03-24T04:45:41.839Z,1.75
2023-03-24T04:48:26.216Z,1.60
2023-03-24T04:51:05.965Z,1.52
2023-03-24T04:53:51.701Z,1.73
2023-03-24T04:56:38.650Z,1.63
2023-03-24T04:59:26.212Z,1.52
2023-03-24T05:01:53.517Z,1.73
2023-03-24T05:04:30.583Z,1.50
2023-03-24T05:07:07.713Z,1.85
2023-03-24T05:09:34.860Z,1.67
2023-03-24T05:12:02.442Z,1.58
2023-03-24T05:14:34.774Z,1.70
2023-03-24T05:17:01.640Z,1.52
2023-03-24T05:19:29.089Z,1.60
2023-03-24T05:21:56.411Z,1.50
2023-03-24T05:24:23.647Z,1.30
2023-03-24T05:26:50.575Z,1.58
2023-03-24T05:29:20.089Z,1.63
2023-03-24T05:31:47.313Z,1.80
2023-03-24T05:34:17.382Z,1.52
2023-03-24T05:39:21.186Z,1.50
2023-03-24T05:41:55.586Z,1.23
2023-03-24T05:44:22.493Z,1.35
2023-03-24T05:47:04.094Z,1.30
2023-03-24T05:49:31.764Z,1.38
2023-03-24T05:52:00.360Z,1.30
2023-03-24T05:54:27.597Z,1.20
2023-03-24T05:57:03.393Z,1.30
2023-03-24T05:59:34.062Z,1.40
2023-03-24T06:02:27.025Z,1.02
2023-03-24T06:05:03.933Z,1.08
2023-03-24T06:07:30.913Z,1.30
2023-03-24T06:10:02.921Z,1.10
2023-03-24T06:12:36.452Z,1.20
2023-03-24T06:15:04.916Z,1.30
2023-03-24T06:17:32.639Z,1.00
2023-03-24T06:20:12.893Z,1.20
2023-03-24T06:22:45.509Z,1.30
2023-03-24T06:25:17.929Z,1.10
2023-03-24T06:27:54.338Z,1.00
2023-03-24T06:30:24.256Z,1.20
2023-03-24T06:32:51.427Z,1.10
2023-03-24T06:35:19.591Z,1.10
2023-03-24T06:38:07.070Z,1.10
2023-03-24T06:40:34.757Z,1.13
2023-03-24T06:43:01.620Z,1.33
2023-03-24T06:45:31.185Z,1.10
2023-03-24T06:47:58.705Z,1.17
2023-03-24T06:50:33.265Z,1.40
2023-03-24T06:53:02.547Z,1.20
2023-03-24T06:55:31.720Z,1.30
2023-03-24T06:57:58.608Z,1.25
2023-03-24T07:00:25.831Z,1.40
2023-03-24T07:03:14.143Z,1.20
2023-03-24T07:05:45.647Z,1.30
2023-03-24T07:10:48.753Z,1.30
2023-03-24T07:13:15.879Z,1.42
2023-03-24T07:15:43.033Z,1.48
2023-03-24T07:18:11.348Z,1.30
2023-03-24T07:20:41.717Z,1.40
2023-03-24T07:23:16.944Z,1.75
2023-03-24T07:25:54.158Z,1.58
2023-03-24T07:28:56.444Z,1.40
2023-03-24T07:31:38.379Z,1.15
2023-03-24T07:34:09.168Z,1.95
2023-03-24T07:36:38.236Z,1.35
2023-03-24T07:39:09.494Z,1.60
2023-03-24T07:41:37.176Z,1.50
2023-03-24T07:44:11.548Z,1.50
2023-03-24T07:46:48.668Z,1.70
2023-03-24T07:49:19.372Z,1.40
2023-03-24T07:51:54.663Z,1.60
2023-03-24T07:54:25.633Z,1.63
2023-03-24T07:56:53.891Z,1.67
2023-03-24T07:59:21.034Z,1.45
2023-03-24T08:01:54.813Z,1.60
2023-03-24T08:04:35.027Z,1.50
2023-03-24T08:07:24.782Z,1.50
2023-03-24T08:09:51.762Z,1.70
2023-03-24T08:12:20.725Z,1.60
2023-03-24T08:14:47.710Z,1.70
2023-03-24T08:17:14.577Z,1.48
2023-03-24T08:19:56.255Z,1.70
2023-03-24T08:22:26.913Z,1.65
2023-03-24T08:24:53.948Z,1.80
2023-03-24T08:27:21.502Z,1.60
2023-03-24T08:29:48.318Z,1.70
2023-03-24T08:32:15.410Z,1.83
2023-03-24T08:34:42.812Z,2.10
2023-03-24T08:37:09.811Z,2.15
2023-03-24T08:39:36.607Z,1.73
2023-03-24T08:42:03.943Z,2.03
2023-03-24T08:44:32.885Z,1.98
2023-03-24T08:47:01.644Z,2.00
2023-03-24T08:49:28.689Z,2.10
2023-03-24T08:51:55.464Z,1.90
2023-03-24T08:54:23.928Z,1.92
2023-03-24T08:56:51.163Z,2.08
2023-03-24T08:59:18.434Z,2.22
2023-03-24T09:01:45.740Z,2.10
2023-03-24T09:04:13.000Z,2.17
2023-03-24T09:06:39.942Z,1.83
2023-03-24T09:09:08.213Z,2.17
2023-03-24T09:11:38.826Z,2.00
2023-03-24T09:14:06.131Z,2.00
2023-03-24T09:16:33.191Z,2.00
2023-03-24T09:19:00.107Z,1.92
2023-03-24T09:21:26.929Z,2.05
2023-03-24T09:23:54.080Z,1.80
2023-03-24T09:26:23.065Z,1.67
2023-03-24T09:28:50.063Z,1.63
2023-03-24T09:31:17.191Z,1.60
2023-03-24T09:33:44.049Z,1.73
2023-03-24T09:36:11.746Z,1.60
2023-03-24T09:38:38.682Z,1.75
2023-03-24T09:41:17.130Z,1.50
2023-03-24T09:43:51.431Z,1.60
2023-03-24T09:46:30.541Z,1.50
2023-03-24T09:48:57.752Z,1.60
2023-03-24T09:51:29.919Z,1.60
2023-03-24T09:54:17.391Z,1.48
2023-03-24T09:56:47.637Z,1.60
2023-03-24T09:59:20.281Z,1.30
2023-03-24T10:01:47.819Z,1.20
2023-03-24T10:04:21.507Z,1.50
2023-03-24T10:06:53.363Z,1.13
2023-03-24T10:09:29.536Z,1.27
2023-03-24T10:12:17.522Z,1.33
2023-03-24T10:14:51.642Z,1.33
2023-03-24T10:17:43.726Z,1.20
2023-03-24T10:20:37.212Z,1.10
2023-03-24T10:23:41.029Z,1.13
2023-03-24T10:26:24.875Z,1.13
2023-03-24T10:29:13.840Z,1.20
2023-03-24T10:31:42.632Z,0.80
2023-03-24T10:34:13.215Z,0.50
2023-03-24T10:36:41.209Z,0.45
2023-03-24T10:39:20.828Z,0.68
2023-03-24T10:41:49.103Z,0.50
2023-03-24T10:44:16.947Z,0.77
2023-03-24T10:46:48.270Z,0.40
2023-03-24T10:49:19.818Z,0.40
2023-03-24T10:51:49.770Z,0.50
2023-03-24T10:54:18.282Z,0.30
2023-03-24T10:57:03.526Z,0.45
2023-03-24T10:59:52.220Z,0.50
2023-03-24T11:02:22.316Z,0.40
2023-03-24T11:04:58.137Z,0.40
2023-03-24T11:07:32.476Z,0.30
2023-03-24T11:09:59.292Z,0.35
2023-03-24T11:12:31.931Z,0.50
2023-03-24T11:15:20.291Z,0.40
2023-03-24T11:17:57.969Z,0.38
2023-03-24T11:20:40.529Z,0.40
2023-03-24T11:23:20.615Z,0.40
2023-03-24T11:26:09.341Z,0.40
2023-03-24T11:28:42.479Z,0.35
2023-03-24T11:31:11.520Z,0.50
2023-03-24T11:33:51.776Z,0.50
2023-03-24T11:36:30.911Z,0.43
2023-03-24T11:39:22.418Z,0.30
2023-03-24T11:42:01.880Z,0.40
2023-03-24T11:44:51.351Z,0.30
2023-03-24T11:47:33.185Z,0.50
2023-03-24T11:50:14.666Z,0.60
2023-03-24T11:52:50.538Z,0.40
2023-03-24T11:55:38.348Z,0.40
2023-03-24T11:58:15.640Z,0.32
2023-03-24T12:01:04.280Z,0.60
2023-03-24T12:04:00.490Z,0.47
2023-03-24T12:06:35.895Z,0.60
2023-03-24T12:09:25.368Z,0.40
2023-03-24T12:12:21.447Z,0.35
2023-03-24T12:15:26.766Z,0.50
2023-03-24T12:18:09.799Z,0.40
2023-03-24T12:20:47.757Z,0.40
2023-03-24T12:23:38.046Z,0.40
2023-03-24T12:26:23.344Z,0.60
2023-03-24T12:29:08.715Z,0.52
2023-03-24T12:32:13.197Z,1.13
2023-03-24T12:34:54.948Z,1.17
2023-03-24T12:37:42.308Z,1.30
2023-03-24T12:40:13.002Z,1.20
2023-03-24T12:42:43.472Z,0.90
2023-03-24T12:45:38.419Z,0.60
2023-03-24T12:48:11.578Z,0.77
2023-03-24T12:51:04.875Z,0.43
2023-03-24T12:53:42.072Z,0.52
2023-03-24T12:56:18.346Z,0.60
2023-03-24T12:58:52.825Z,0.50
2023-03-24T13:03:53.620Z,0.50
2023-03-24T13:06:38.770Z,0.60
2023-03-24T13:09:24.793Z,0.65
2023-03-24T13:11:59.861Z,0.70
2023-03-24T13:14:53.099Z,0.65
2023-03-24T13:17:31.256Z,0.73
2023-03-24T13:19:58.721Z,0.98
2023-03-24T13:22:27.437Z,0.80
2023-03-24T13:24:55.687Z,0.70
2023-03-24T13:27:31.981Z,0.70
2023-03-24T13:30:23.528Z,1.08
2023-03-24T13:32:55.549Z,0.80
2023-03-24T13:35:53.293Z,0.57
2023-03-24T13:38:37.330Z,0.70
2023-03-24T13:41:06.880Z,0.73
2023-03-24T13:43:34.692Z,0.80
2023-03-24T13:46:03.321Z,0.73
2023-03-24T13:48:42.273Z,0.65
2023-03-24T13:51:41.068Z,0.90
2023-03-24T13:54:20.545Z,0.73
2023-03-24T13:57:02.804Z,0.63
2023-03-24T14:00:02.012Z,0.80
2023-03-24T14:02:31.664Z,0.60
2023-03-24T14:04:58.560Z,0.70
2023-03-24T14:07:38.932Z,0.90
2023-03-24T14:10:14.624Z,0.70
2023-03-24T14:12:59.483Z,0.70
2023-03-24T14:15:33.179Z,0.90
2023-03-24T14:18:25.678Z,0.70
2023-03-24T14:21:05.295Z,1.13
2023-03-24T14:23:49.419Z,1.00
2023-03-24T14:26:36.623Z,0.85
2023-03-24T14:29:03.824Z,0.80
2023-03-24T14:31:36.307Z,0.80
2023-03-24T14:34:13.969Z,0.70
2023-03-24T14:36:43.651Z,1.05
2023-03-24T14:39:27.884Z,0.77
2023-03-24T14:41:56.327Z,0.63
2023-03-24T14:44:51.945Z,0.70
2023-03-24T14:47:21.744Z,1.00
2023-03-24T14:49:51.266Z,0.95
2023-03-24T14:52:32.018Z,0.90
2023-03-24T14:55:03.372Z,0.80
2023-03-24T14:57:44.989Z,0.60
2023-03-24T15:00:35.867Z,0.80
2023-03-24T15:03:17.727Z,0.68
2023-03-24T15:05:44.793Z,0.82
2023-03-24T15:08:23.353Z,0.70
2023-03-24T15:11:08.491Z,0.70
2023-03-24T15:13:44.721Z,0.70
2023-03-24T15:16:11.634Z,1.15
2023-03-24T15:19:01.355Z,0.90
2023-03-24T15:21:38.345Z,0.80
2023-03-24T15:24:25.995Z,0.80
2023-03-24T15:26:55.360Z,0.90
2023-03-24T15:29:23.443Z,0.63
2023-03-24T15:31:51.204Z,0.60
2023-03-24T15:34:35.762Z,0.70
2023-03-24T15:37:07.925Z,0.68
2023-03-24T15:39:37.124Z,0.50
2023-03-24T15:42:08.879Z,0.93
2023-03-24T15:44:39.531Z,0.80
2023-03-24T15:47:31.216Z,0.80
2023-03-24T15:50:00.762Z,0.80
2023-03-24T15:52:35.185Z,0.70
2023-03-24T15:55:22.138Z,0.80
2023-03-24T15:57:49.010Z,0.80
2023-03-24T16:00:24.927Z,1.00
2023-03-24T16:02:54.200Z,0.70
2023-03-24T16:05:25.748Z,0.70
2023-03-24T16:08:04.395Z,0.85
2023-03-24T16:10:40.552Z,0.90
2023-03-24T16:13:19.141Z,0.88
2023-03-24T16:15:52.833Z,1.00
2023-03-24T16:18:24.984Z,1.00
2023-03-24T16:20:52.501Z,0.90
2023-03-24T16:23:19.394Z,0.70
2023-03-24T16:25:46.405Z,0.80
2023-03-24T16:28:15.890Z,0.80
2023-03-24T16:30:44.299Z,0.73
2023-03-24T16:33:12.663Z,0.77
2023-03-24T16:35:39.622Z,1.02
2023-03-24T16:38:06.571Z,1.00
2023-03-24T16:40:43.713Z,0.88
2023-03-24T16:43:10.649Z,1.05
2023-03-24T16:45:37.716Z,0.90
2023-03-24T16:48:04.723Z,1.00
2023-03-24T16:50:37.961Z,0.80
2023-03-24T16:53:05.418Z,0.93
2023-03-24T16:55:32.594Z,0.70
2023-03-24T16:57:59.383Z,0.90
2023-03-24T17:00:27.458Z,0.80
2023-03-24T17:02:54.390Z,0.80
2023-03-24T17:05:23.260Z,0.60
2023-03-24T17:07:51.198Z,0.98
2023-03-24T17:10:18.396Z,0.80
2023-03-24T17:12:46.139Z,0.70
2023-03-24T17:15:28.718Z,0.60
2023-03-24T17:17:56.410Z,0.80
2023-03-24T17:20:24.208Z,0.90
2023-03-24T17:22:52.746Z,0.70
2023-03-24T17:25:22.487Z,0.90
2023-03-24T17:27:51.259Z,1.05
2023-03-24T17:30:23.442Z,1.20
2023-03-24T17:32:50.588Z,1.13
2023-03-24T17:35:19.971Z,0.90
2023-03-24T17:37:48.056Z,0.70
2023-03-24T17:40:17.495Z,0.70
2023-03-24T17:42:46.759Z,1.13
2023-03-24T17:45:16.884Z,1.10
2023-03-24T17:47:44.301Z,1.00
2023-03-24T17:50:12.061Z,0.90
2023-03-24T17:52:43.140Z,0.60
2023-03-24T17:55:11.815Z,1.10
2023-03-24T17:57:38.846Z,0.98
2023-03-24T18:00:08.817Z,0.88
2023-03-24T18:02:36.071Z,1.05
2023-03-24T18:05:03.381Z,0.80
2023-03-24T18:07:30.524Z,1.10
2023-03-24T18:09:57.507Z,1.35
2023-03-24T18:12:25.975Z,1.02
2023-03-24T18:14:53.010Z,1.08
2023-03-24T18:17:19.817Z,0.90
2023-03-24T18:19:46.615Z,0.80
2023-03-24T18:22:13.448Z,0.68
2023-03-24T18:24:40.370Z,0.93
2023-03-24T18:27:10.007Z,1.05
2023-03-24T18:29:41.144Z,0.70
2023-03-24T18:32:08.144Z,0.80
2023-03-24T18:34:38.880Z,0.93
2023-03-24T18:37:05.825Z,0.90
2023-03-24T18:39:32.865Z,0.90
2023-03-24T18:41:59.690Z,0.90
2023-03-24T18:44:26.580Z,0.75
2023-03-24T18:46:54.254Z,0.85
2023-03-24T18:49:21.322Z,1.10
2023-03-24T18:51:48.146Z,0.80
2023-03-24T18:54:15.355Z,0.80
2023-03-24T18:56:42.705Z,1.13
2023-03-24T18:59:11.723Z,0.85
2023-03-24T19:01:38.754Z,0.90
2023-03-24T19:04:06.259Z,0.70
2023-03-24T19:06:35.143Z,0.90
2023-03-24T19:09:02.568Z,1.10
2023-03-24T19:11:29.446Z,0.80
2023-03-24T19:13:57.043Z,0.90
2023-03-24T19:16:24.053Z,0.90
2023-03-24T19:18:51.335Z,0.60
2023-03-24T19:21:19.726Z,0.93
2023-03-24T19:23:47.147Z,0.98
2023-03-24T19:26:16.440Z,0.98
2023-03-24T19:28:43.974Z,1.10
2023-03-24T19:31:15.187Z,0.82
2023-03-24T19:33:42.367Z,1.00
2023-03-24T19:36:10.002Z,0.80
2023-03-24T19:38:37.959Z,1.27
2023-03-24T19:41:10.148Z,1.40
2023-03-24T19:43:37.411Z,1.50
2023-03-24T19:46:05.676Z,1.38
2023-03-24T19:48:33.268Z,1.40
2023-03-24T19:51:00.152Z,1.00
2023-03-24T19:53:27.158Z,1.27
2023-03-24T19:55:57.829Z,1.00
2023-03-24T19:58:25.478Z,1.77
2023-03-24T20:00:53.053Z,2.33
2023-03-24T20:03:20.562Z,1.98
2023-03-24T20:05:48.104Z,1.67
2023-03-24T20:08:15.980Z,1.60
2023-03-24T20:10:42.877Z,1.30
2023-03-24T20:13:10.079Z,1.38
2023-03-24T20:15:37.459Z,1.40
2023-03-24T20:18:05.211Z,1.20
2023-03-24T20:20:32.368Z,0.98
2023-03-24T20:22:59.176Z,1.20
2023-03-24T20:25:26.486Z,1.17
2023-03-24T20:27:53.454Z,0.90
2023-03-24T20:30:20.766Z,0.90
2023-03-24T20:32:48.471Z,0.90
2023-03-24T20:35:16.013Z,0.90
2023-03-24T20:37:43.504Z,0.85
2023-03-24T20:40:10.801Z,0.98
2023-03-24T20:42:38.269Z,0.88
2023-03-24T20:45:07.769Z,0.85
2023-03-24T20:47:36.504Z,1.42
2023-03-24T20:50:06.174Z,1.80
2023-03-24T20:52:33.251Z,1.40
2023-03-24T20:55:06.458Z,1.10
2023-03-24T20:57:33.671Z,1.10
2023-03-24T21:00:00.877Z,0.90
2023-03-24T21:02:27.954Z,1.00
2023-03-24T21:04:55.114Z,0.80
2023-03-24T21:07:22.250Z,0.90
2023-03-24T21:09:49.296Z,0.80
2023-03-24T21:12:16.433Z,0.70
2023-03-24T21:14:46.742Z,0.50
2023-03-24T21:17:14.001Z,0.57
2023-03-24T21:19:46.788Z,0.90
2023-03-24T21:22:15.286Z,0.60
2023-03-24T21:24:42.298Z,0.70
2023-03-24T21:27:09.181Z,0.77
2023-03-24T21:29:36.039Z,0.75
2023-03-24T21:32:02.937Z,0.70
2023-03-24T21:34:29.902Z,0.65
2023-03-24T21:36:56.773Z,0.55
2023-03-24T21:39:24.077Z,0.60
2023-03-24T21:41:52.317Z,0.60
2023-03-24T21:44:19.718Z,0.40
2023-03-24T21:46:48.122Z,0.75
2023-03-24T21:49:18.820Z,0.40
2023-03-24T21:51:46.750Z,0.40
2023-03-24T21:54:14.800Z,0.60
2023-03-24T21:56:41.799Z,0.50
2023-03-24T21:59:09.229Z,0.60
2023-03-24T22:01:36.391Z,0.50
2023-03-24T22:04:03.451Z,0.40
2023-03-24T22:06:30.399Z,0.60
2023-03-24T22:09:06.723Z,0.40
2023-03-24T22:11:35.005Z,0.52
2023-03-24T22:14:02.356Z,0.32
2023-03-24T22:16:29.617Z,0.50
2023-03-24T22:18:57.207Z,0.60
2023-03-24T22:21:24.200Z,0.73
2023-03-24T22:23:51.085Z,0.57
2023-03-24T22:26:18.099Z,0.50
2023-03-24T22:28:44.961Z,0.60
2023-03-24T22:31:14.124Z,0.60
2023-03-24T22:33:41.471Z,0.40
2023-03-24T22:36:09.457Z,0.38
2023-03-24T22:38:36.431Z,0.65
2023-03-24T22:41:08.289Z,0.40
2023-03-24T22:43:35.961Z,0.57
2023-03-24T22:46:03.236Z,0.70
2023-03-24T22:48:30.396Z,0.50
2023-03-24T22:50:57.257Z,0.52
2023-03-24T22:53:24.095Z,0.60
2023-03-24T22:55:51.810Z,0.60
2023-03-24T22:58:19.008Z,0.32
2023-03-24T23:00:49.055Z,0.60
2023-03-24T23:03:16.675Z,0.65
2023-03-24T23:05:45.819Z,0.60
2023-03-24T23:08:15.072Z,0.60
2023-03-24T23:10:43.886Z,0.70
2023-03-24T23:13:11.329Z,0.55
2023-03-24T23:15:39.642Z,0.68
2023-03-24T23:18:06.802Z,0.47
2023-03-24T23:20:34.345Z,0.60
2023-03-24T23:23:01.459Z,0.50
2023-03-24T23:25:30.583Z,0.70
2023-03-24T23:27:57.685Z,0.70
2023-03-24T23:30:24.723Z,0.73
2023-03-24T23:32:51.793Z,0.35
2023-03-24T23:35:18.917Z,0.60
2023-03-24T23:37:46.497Z,0.63
2023-03-24T23:40:15.484Z,0.70
2023-03-24T23:42:45.431Z,0.80
2023-03-24T23:45:14.747Z,0.80
2023-03-24T23:47:43.386Z,0.77
2023-03-24T23:50:10.818Z,0.70
2023-03-24T23:52:38.092Z,0.82
2023-03-24T23:55:05.566Z,0.90
2023-03-24T23:57:32.953Z,0.98
